createdAt,value
2022-09-25T00:01:19.344Z,14.95
2022-09-25T00:03:47.427Z,14.94
2022-09-25T00:06:17.681Z,14.90
2022-09-25T00:08:46.585Z,14.87
2022-09-25T00:11:16.363Z,14.91
2022-09-25T00:13:45.833Z,14.79
2022-09-25T00:16:16.203Z,14.82
2022-09-25T00:19:03.146Z,14.71
2022-09-25T00:21:32.036Z,14.71
2022-09-25T00:24:01.056Z,14.78
2022-09-25T00:26:30.609Z,14.75
2022-09-25T00:29:01.082Z,14.65
2022-09-25T00:31:30.507Z,14.66
2022-09-25T00:34:02.460Z,14.68
2022-09-25T00:36:30.855Z,14.75
2022-09-25T00:38:58.751Z,14.77
2022-09-25T00:41:30.104Z,14.66
2022-09-25T00:43:59.984Z,14.71
2022-09-25T00:46:31.566Z,14.70
2022-09-25T00:49:05.291Z,14.66
2022-09-25T00:51:38.884Z,14.61
2022-09-25T00:54:07.556Z,14.80
2022-09-25T00:56:41.098Z,14.59
2022-09-25T00:59:13.070Z,14.50
2022-09-25T01:01:40.991Z,14.52
2022-09-25T01:04:13.394Z,14.47
2022-09-25T01:06:41.934Z,14.45
2022-09-25T01:09:09.912Z,14.55
2022-09-25T01:11:37.749Z,14.61
2022-09-25T01:14:08.585Z,14.57
2022-09-25T01:16:42.433Z,14.50
2022-09-25T01:19:27.277Z,14.59
2022-09-25T01:22:06.174Z,14.54
2022-09-25T01:25:03.058Z,14.65
2022-09-25T01:28:07.881Z,14.53
2022-09-25T01:30:41.638Z,14.43
2022-09-25T01:33:16.114Z,14.32
2022-09-25T01:35:49.806Z,14.36
2022-09-25T01:38:31.221Z,14.45
2022-09-25T01:41:03.616Z,14.41
2022-09-25T01:43:37.767Z,14.38
2022-09-25T01:46:12.997Z,14.43
2022-09-25T01:48:44.325Z,14.33
2022-09-25T01:51:20.197Z,14.44
2022-09-25T01:53:52.596Z,14.41
2022-09-25T01:56:26.251Z,14.36
2022-09-25T01:59:00.780Z,14.36
2022-09-25T02:01:35.159Z,14.37
2022-09-25T02:04:09.234Z,14.35
2022-09-25T02:06:39.834Z,14.36
2022-09-25T02:09:12.144Z,14.31
2022-09-25T02:11:44.654Z,14.33
2022-09-25T02:14:17.373Z,14.36
2022-09-25T02:16:52.250Z,14.33
2022-09-25T02:19:38.329Z,14.27
2022-09-25T02:22:11.829Z,14.24
2022-09-25T02:24:47.141Z,14.25
2022-09-25T02:27:15.732Z,14.23
2022-09-25T02:29:43.679Z,14.20
2022-09-25T02:32:14.392Z,14.16
2022-09-25T02:34:43.439Z,14.19
2022-09-25T02:37:12.694Z,14.22
2022-09-25T02:39:42.795Z,14.17
2022-09-25T02:42:23.314Z,14.15
2022-09-25T02:45:07.722Z,14.19
2022-09-25T02:47:45.750Z,14.11
2022-09-25T02:50:21.058Z,14.06
2022-09-25T02:52:54.326Z,14.02
2022-09-25T02:55:32.314Z,13.97
2022-09-25T02:58:05.628Z,13.92
2022-09-25T03:00:36.947Z,14.00
2022-09-25T03:03:09.932Z,14.01
2022-09-25T03:05:39.474Z,13.96
2022-09-25T03:08:26.066Z,13.92
2022-09-25T03:10:58.602Z,13.98
2022-09-25T03:13:31.890Z,13.97
2022-09-25T03:16:02.711Z,13.93
2022-09-25T03:18:32.312Z,13.96
2022-09-25T03:21:00.772Z,14.00
2022-09-25T03:23:28.689Z,13.94
2022-09-25T03:25:57.117Z,13.97
2022-09-25T03:28:27.234Z,14.01
2022-09-25T03:31:00.696Z,13.99
2022-09-25T03:33:29.394Z,14.07
2022-09-25T03:36:08.152Z,14.02
2022-09-25T03:38:36.316Z,13.91
2022-09-25T03:41:06.805Z,14.00
2022-09-25T03:43:36.670Z,14.06
2022-09-25T03:46:05.022Z,14.06
2022-09-25T03:48:33.594Z,14.07
2022-09-25T03:51:01.794Z,14.09
2022-09-25T03:53:33.450Z,14.05
2022-09-25T03:56:02.268Z,14.06
2022-09-25T03:58:30.546Z,14.02
2022-09-25T04:00:58.844Z,14.04
2022-09-25T04:03:28.545Z,14.01
2022-09-25T04:05:57.045Z,14.00
2022-09-25T04:08:26.904Z,14.01
2022-09-25T04:10:59.336Z,13.96
2022-09-25T04:13:30.048Z,13.96
2022-09-25T04:15:58.457Z,13.93
2022-09-25T04:18:27.378Z,13.83
2022-09-25T04:20:55.207Z,13.86
2022-09-25T04:23:23.039Z,13.87
2022-09-25T04:25:51.021Z,13.90
2022-09-25T04:28:22.279Z,13.86
2022-09-25T04:30:50.646Z,13.81
2022-09-25T04:33:36.614Z,13.81
2022-09-25T04:36:05.594Z,13.85
2022-09-25T04:38:33.702Z,13.83
2022-09-25T04:41:02.840Z,13.80
2022-09-25T04:43:32.526Z,13.78
2022-09-25T04:46:03.082Z,13.67
2022-09-25T04:48:31.544Z,13.71
2022-09-25T04:50:59.489Z,13.66
2022-09-25T04:53:28.348Z,13.65
2022-09-25T04:56:01.511Z,13.60
2022-09-25T04:58:29.672Z,13.60
2022-09-25T05:01:02.722Z,13.64
2022-09-25T05:03:31.048Z,13.61
2022-09-25T05:05:59.823Z,13.58
2022-09-25T05:08:28.316Z,13.51
2022-09-25T05:10:56.495Z,13.57
2022-09-25T05:13:24.601Z,13.58
2022-09-25T05:15:52.591Z,13.57
2022-09-25T05:18:23.531Z,13.54
2022-09-25T05:20:53.407Z,13.51
2022-09-25T05:23:22.032Z,13.55
2022-09-25T05:25:53.147Z,13.52
2022-09-25T05:28:21.126Z,13.42
2022-09-25T05:30:49.137Z,13.50
2022-09-25T05:33:19.125Z,13.52
2022-09-25T05:35:49.451Z,13.54
2022-09-25T05:38:17.526Z,13.53
2022-09-25T05:40:45.468Z,13.53
2022-09-25T05:43:13.527Z,13.51
2022-09-25T05:45:42.449Z,13.52
2022-09-25T05:48:10.432Z,13.52
2022-09-25T05:50:38.581Z,13.51
2022-09-25T05:53:07.787Z,13.55
2022-09-25T05:55:36.106Z,13.51
2022-09-25T05:58:05.550Z,13.53
2022-09-25T06:00:33.993Z,13.51
2022-09-25T06:03:02.421Z,13.51
2022-09-25T06:05:30.430Z,13.57
2022-09-25T06:07:58.378Z,13.59
2022-09-25T06:10:27.611Z,13.58
2022-09-25T06:12:58.860Z,13.63
2022-09-25T06:15:27.925Z,13.58
2022-09-25T06:17:56.292Z,13.57
2022-09-25T06:20:24.908Z,13.59
2022-09-25T06:22:53.766Z,13.60
2022-09-25T06:25:22.010Z,13.62
2022-09-25T06:27:53.432Z,13.64
2022-09-25T06:30:22.025Z,13.68
2022-09-25T06:32:51.065Z,13.66
2022-09-25T06:35:19.271Z,13.68
2022-09-25T06:37:47.093Z,13.66
2022-09-25T06:40:15.211Z,13.69
2022-09-25T06:42:43.015Z,13.72
2022-09-25T06:45:12.894Z,13.77
2022-09-25T06:47:40.799Z,13.79
2022-09-25T06:50:09.416Z,13.86
2022-09-25T06:52:43.244Z,13.95
2022-09-25T06:55:11.558Z,14.01
2022-09-25T06:57:39.615Z,14.04
2022-09-25T07:00:08.945Z,14.08
2022-09-25T07:02:55.671Z,14.10
2022-09-25T07:05:23.703Z,14.16
2022-09-25T07:07:51.557Z,14.26
2022-09-25T07:10:19.551Z,14.30
2022-09-25T07:12:47.963Z,14.35
2022-09-25T07:15:16.578Z,14.42
2022-09-25T07:17:46.312Z,14.50
2022-09-25T07:20:15.206Z,14.59
2022-09-25T07:22:43.676Z,14.65
2022-09-25T07:25:12.498Z,14.71
2022-09-25T07:27:40.630Z,14.68
2022-09-25T07:30:10.414Z,14.73
2022-09-25T07:32:38.356Z,14.69
2022-09-25T07:35:08.571Z,14.72
2022-09-25T07:37:36.808Z,14.74
2022-09-25T07:40:05.049Z,14.76
2022-09-25T07:42:32.955Z,14.76
2022-09-25T07:45:00.776Z,14.81
2022-09-25T07:47:28.732Z,14.84
2022-09-25T07:49:56.612Z,14.89
2022-09-25T07:52:25.909Z,14.92
2022-09-25T07:54:53.882Z,15.00
2022-09-25T07:57:22.186Z,15.08
2022-09-25T07:59:50.153Z,15.11
2022-09-25T08:02:18.306Z,15.21
2022-09-25T08:04:46.224Z,15.26
2022-09-25T08:07:14.113Z,15.32
2022-09-25T08:09:43.338Z,15.39
2022-09-25T08:12:12.893Z,15.47
2022-09-25T08:14:41.800Z,15.59
2022-09-25T08:17:09.730Z,15.67
2022-09-25T08:19:37.668Z,15.75
2022-09-25T08:22:05.618Z,15.82
2022-09-25T08:24:33.626Z,15.74
2022-09-25T08:27:02.956Z,15.74
2022-09-25T08:29:31.043Z,15.65
2022-09-25T08:31:59.067Z,15.42
2022-09-25T08:34:42.886Z,15.31
2022-09-25T08:37:11.228Z,15.13
2022-09-25T08:39:39.133Z,15.08
2022-09-25T08:42:17.759Z,15.02
2022-09-25T08:45:16.647Z,14.80
2022-09-25T08:47:56.539Z,14.75
2022-09-25T08:50:26.253Z,14.71
2022-09-25T08:53:03.258Z,14.62
2022-09-25T08:55:48.536Z,14.66
2022-09-25T08:58:24.628Z,14.68
2022-09-25T09:00:55.306Z,14.66
2022-09-25T09:03:25.770Z,14.66
2022-09-25T09:06:00.174Z,14.71
2022-09-25T09:08:30.727Z,14.67
2022-09-25T09:11:02.773Z,14.70
2022-09-25T09:13:37.078Z,14.72
2022-09-25T09:16:10.288Z,14.74
2022-09-25T09:18:40.162Z,14.71
2022-09-25T09:21:15.290Z,14.80
2022-09-25T09:23:52.465Z,14.90
2022-09-25T09:26:25.284Z,14.93
2022-09-25T09:29:15.839Z,15.04
2022-09-25T09:31:57.418Z,15.09
2022-09-25T09:35:07.107Z,15.15
2022-09-25T09:37:49.926Z,15.15
2022-09-25T09:40:35.556Z,15.19
2022-09-25T09:43:13.584Z,15.19
2022-09-25T09:45:48.654Z,15.23
2022-09-25T09:48:25.728Z,15.24
2022-09-25T09:50:57.829Z,15.28
2022-09-25T09:53:34.071Z,15.32
2022-09-25T09:56:09.238Z,15.40
2022-09-25T09:58:48.339Z,15.47
2022-09-25T10:01:40.330Z,15.55
2022-09-25T10:04:12.651Z,15.57
2022-09-25T10:06:46.914Z,15.59
2022-09-25T10:09:16.805Z,15.62
2022-09-25T10:11:46.677Z,15.64
2022-09-25T10:14:21.050Z,15.74
2022-09-25T10:16:52.192Z,15.68
2022-09-25T10:19:23.427Z,15.74
2022-09-25T10:21:54.807Z,15.82
2022-09-25T10:24:52.019Z,15.87
2022-09-25T10:27:28.809Z,15.89
2022-09-25T10:30:15.102Z,16.00
2022-09-25T10:32:47.713Z,16.00
2022-09-25T10:35:17.814Z,16.07
2022-09-25T10:37:48.680Z,16.18
2022-09-25T10:40:27.007Z,16.28
2022-09-25T10:43:24.014Z,16.32
2022-09-25T10:46:06.674Z,16.31
2022-09-25T10:48:55.549Z,16.35
2022-09-25T10:51:23.874Z,16.39
2022-09-25T10:53:53.838Z,16.42
2022-09-25T10:56:27.531Z,16.44
2022-09-25T10:58:58.891Z,16.51
2022-09-25T11:01:35.354Z,16.51
2022-09-25T11:04:14.065Z,16.43
2022-09-25T11:06:46.657Z,16.42
2022-09-25T11:09:17.348Z,16.38
2022-09-25T11:11:47.051Z,16.45
2022-09-25T11:14:22.977Z,16.45
2022-09-25T11:16:54.127Z,16.50
2022-09-25T11:19:29.616Z,16.66
2022-09-25T11:22:07.861Z,16.76
2022-09-25T11:24:47.154Z,16.77
2022-09-25T11:27:19.698Z,16.87
2022-09-25T11:29:58.448Z,16.92
2022-09-25T11:32:35.029Z,17.00
2022-09-25T11:35:29.802Z,17.12
2022-09-25T11:38:09.625Z,17.07
2022-09-25T11:41:07.376Z,17.13
2022-09-25T11:43:46.993Z,17.20
2022-09-25T11:46:23.481Z,17.34
2022-09-25T11:49:01.889Z,17.43
2022-09-25T11:52:02.226Z,17.34
2022-09-25T11:54:39.444Z,17.12
2022-09-25T11:57:11.685Z,17.16
2022-09-25T12:00:00.359Z,17.09
2022-09-25T12:02:40.895Z,17.15
2022-09-25T12:05:25.147Z,17.09
2022-09-25T12:08:15.504Z,17.01
2022-09-25T12:10:55.927Z,16.89
2022-09-25T12:13:32.181Z,16.78
2022-09-25T12:16:12.759Z,16.83
2022-09-25T12:18:56.741Z,16.75
2022-09-25T12:21:34.064Z,16.74
2022-09-25T12:24:12.332Z,16.70
2022-09-25T12:26:48.618Z,16.66
2022-09-25T12:29:29.133Z,16.75
2022-09-25T12:32:05.160Z,16.92
2022-09-25T12:34:52.548Z,16.97
2022-09-25T12:37:38.568Z,16.92
2022-09-25T12:40:20.667Z,16.93
2022-09-25T12:42:55.680Z,16.99
2022-09-25T12:45:31.154Z,17.00
2022-09-25T12:48:12.216Z,17.07
2022-09-25T12:50:48.912Z,17.16
2022-09-25T12:53:26.812Z,17.17
2022-09-25T12:56:00.961Z,17.20
2022-09-25T12:58:48.067Z,17.29
2022-09-25T13:01:22.846Z,17.36
2022-09-25T13:03:59.145Z,17.48
2022-09-25T13:06:37.890Z,17.69
2022-09-25T13:09:18.186Z,17.85
2022-09-25T13:11:52.589Z,18.10
2022-09-25T13:14:31.484Z,18.19
2022-09-25T13:17:01.199Z,18.33
2022-09-25T13:19:32.985Z,18.60
2022-09-25T13:22:04.288Z,18.68
2022-09-25T13:24:40.324Z,18.84
2022-09-25T13:27:16.504Z,18.94
2022-09-25T13:29:45.025Z,18.97
2022-09-25T13:32:18.960Z,18.99
2022-09-25T13:34:47.791Z,18.97
2022-09-25T13:37:16.845Z,19.05
2022-09-25T13:40:06.900Z,19.03
2022-09-25T13:42:39.704Z,19.14
2022-09-25T13:45:36.236Z,19.20
2022-09-25T13:48:10.773Z,19.17
2022-09-25T13:50:40.958Z,19.15
2022-09-25T13:53:20.539Z,19.15
2022-09-25T13:56:30.977Z,19.32
2022-09-25T13:59:20.031Z,19.37
2022-09-25T14:01:51.122Z,19.56
2022-09-25T14:04:32.450Z,19.56
2022-09-25T14:07:14.453Z,19.64
2022-09-25T14:09:48.668Z,19.63
2022-09-25T14:12:30.010Z,19.57
2022-09-25T14:15:05.851Z,19.76
2022-09-25T14:17:33.993Z,19.83
2022-09-25T14:20:05.705Z,19.83
2022-09-25T14:22:44.513Z,19.81
2022-09-25T14:25:28.178Z,19.67
2022-09-25T14:27:56.263Z,19.70
2022-09-25T14:30:29.244Z,19.50
2022-09-25T14:33:19.473Z,19.51
2022-09-25T14:35:54.990Z,19.38
2022-09-25T14:38:45.247Z,19.48
2022-09-25T14:41:31.102Z,19.55
2022-09-25T14:44:17.776Z,19.40
2022-09-25T14:46:51.199Z,19.49
2022-09-25T14:49:25.445Z,19.56
2022-09-25T14:51:56.353Z,19.60
2022-09-25T14:54:29.991Z,19.59
2022-09-25T14:56:59.477Z,19.64
2022-09-25T14:59:32.997Z,19.69
2022-09-25T15:02:03.090Z,19.74
2022-09-25T15:04:33.370Z,19.56
2022-09-25T15:07:06.013Z,19.62
2022-09-25T15:09:38.647Z,19.72
2022-09-25T15:12:19.162Z,19.84
2022-09-25T15:15:07.570Z,19.98
2022-09-25T15:17:45.100Z,19.98
2022-09-25T15:20:16.507Z,19.88
2022-09-25T15:22:48.355Z,19.88
2022-09-25T15:25:25.612Z,19.97
2022-09-25T15:27:53.870Z,19.94
2022-09-25T15:30:22.779Z,19.86
2022-09-25T15:32:59.778Z,19.75
2022-09-25T15:35:29.038Z,19.69
2022-09-25T15:38:07.081Z,19.72
2022-09-25T15:40:35.021Z,19.62
2022-09-25T15:43:02.981Z,19.42
2022-09-25T15:45:46.835Z,19.29
2022-09-25T15:48:22.824Z,19.19
2022-09-25T15:50:51.817Z,19.03
2022-09-25T15:53:24.870Z,18.93
2022-09-25T15:56:08.188Z,18.91
2022-09-25T15:58:45.489Z,18.86
2022-09-25T16:01:33.544Z,18.79
2022-09-25T16:04:24.053Z,18.71
2022-09-25T16:06:52.016Z,18.64
2022-09-25T16:09:31.780Z,18.58
2022-09-25T16:12:28.871Z,18.60
2022-09-25T16:14:58.038Z,18.52
2022-09-25T16:17:33.172Z,18.51
2022-09-25T16:20:05.880Z,18.47
2022-09-25T16:22:40.694Z,18.47
2022-09-25T16:25:24.725Z,18.42
2022-09-25T16:27:54.077Z,18.41
2022-09-25T16:30:24.340Z,18.42
2022-09-25T16:32:55.151Z,18.44
2022-09-25T16:36:04.470Z,18.35
2022-09-25T16:38:29.500Z,18.30
2022-09-25T16:41:05.671Z,18.27
2022-09-25T16:43:36.141Z,18.14
2022-09-25T16:46:13.484Z,18.16
2022-09-25T16:48:42.548Z,18.13
2022-09-25T16:51:15.025Z,18.12
2022-09-25T16:53:42.905Z,18.11
2022-09-25T16:56:10.959Z,18.11
2022-09-25T16:58:38.939Z,18.10
2022-09-25T17:01:06.840Z,18.07
2022-09-25T17:03:49.766Z,18.02
2022-09-25T17:06:19.864Z,18.02
2022-09-25T17:08:48.087Z,18.02
2022-09-25T17:11:17.706Z,18.00
2022-09-25T17:13:47.108Z,17.96
2022-09-25T17:16:15.254Z,17.97
2022-09-25T17:18:43.280Z,17.96
2022-09-25T17:21:14.486Z,17.83
2022-09-25T17:23:44.784Z,17.87
2022-09-25T17:26:17.916Z,17.86
2022-09-25T17:28:45.871Z,17.87
2022-09-25T17:31:15.604Z,17.84
2022-09-25T17:33:43.493Z,17.86
2022-09-25T17:36:13.472Z,17.87
2022-09-25T17:38:43.031Z,17.86
2022-09-25T17:41:18.194Z,17.85
2022-09-25T17:43:46.141Z,17.86
2022-09-25T17:46:16.170Z,17.80
2022-09-25T17:48:44.124Z,17.78
2022-09-25T17:51:15.996Z,17.73
2022-09-25T17:53:46.090Z,17.60
2022-09-25T17:56:14.343Z,17.64
2022-09-25T17:58:44.274Z,17.57
2022-09-25T18:01:15.469Z,17.52
2022-09-25T18:03:43.575Z,17.44
2022-09-25T18:06:11.397Z,17.34
2022-09-25T18:08:39.216Z,17.28
2022-09-25T18:11:12.183Z,17.25
2022-09-25T18:13:41.779Z,17.18
2022-09-25T18:16:16.502Z,17.19
2022-09-25T18:19:02.339Z,17.17
2022-09-25T18:21:48.468Z,16.90
2022-09-25T18:24:16.620Z,16.77
2022-09-25T18:26:46.741Z,16.80
2022-09-25T18:29:16.808Z,16.58
2022-09-25T18:31:45.222Z,16.67
2022-09-25T18:34:13.471Z,16.71
2022-09-25T18:36:41.655Z,16.69
2022-09-25T18:39:10.074Z,16.75
2022-09-25T18:41:38.357Z,16.76
2022-09-25T18:44:08.046Z,16.74
2022-09-25T18:46:37.418Z,16.63
2022-09-25T18:49:05.973Z,16.66
2022-09-25T18:51:34.502Z,16.69
2022-09-25T18:54:03.887Z,16.67
2022-09-25T18:56:34.576Z,16.54
2022-09-25T18:59:22.436Z,16.65
2022-09-25T19:05:54.165Z,16.68
2022-09-25T19:08:25.098Z,16.59
2022-09-25T19:10:58.757Z,16.30
2022-09-25T19:13:28.002Z,16.35
2022-09-25T19:15:59.001Z,16.36
2022-09-25T19:18:28.690Z,16.24
2022-09-25T19:20:58.491Z,16.15
2022-09-25T19:23:31.803Z,16.16
2022-09-25T19:26:03.634Z,16.15
2022-09-25T19:28:37.647Z,16.17
2022-09-25T19:31:08.691Z,16.12
2022-09-25T19:33:38.522Z,15.88
2022-09-25T19:36:08.725Z,15.96
2022-09-25T19:38:40.427Z,15.93
2022-09-25T19:41:15.196Z,15.97
2022-09-25T19:43:45.032Z,15.98
2022-09-25T19:46:14.950Z,15.98
2022-09-25T19:48:43.711Z,15.89
2022-09-25T19:51:12.845Z,15.80
2022-09-25T19:53:43.747Z,15.85
2022-09-25T19:56:12.447Z,15.65
2022-09-25T19:58:42.930Z,15.71
2022-09-25T20:01:13.265Z,15.53
2022-09-25T20:03:42.228Z,15.58
2022-09-25T20:06:13.360Z,15.56
2022-09-25T20:08:45.061Z,15.59
2022-09-25T20:11:16.870Z,15.66
2022-09-25T20:13:47.695Z,15.45
2022-09-25T20:16:18.956Z,15.37
2022-09-25T20:18:49.259Z,15.45
2022-09-25T20:25:28.021Z,15.44
2022-09-25T20:27:58.080Z,15.28
2022-09-25T20:30:30.098Z,15.39
2022-09-25T20:32:59.182Z,15.51
2022-09-25T20:35:27.135Z,15.46
2022-09-25T20:37:55.196Z,15.37
2022-09-25T20:40:25.541Z,15.27
2022-09-25T20:42:53.906Z,15.31
2022-09-25T20:45:21.975Z,15.39
2022-09-25T20:47:51.020Z,15.23
2022-09-25T20:50:19.329Z,15.24
2022-09-25T20:52:48.170Z,15.16
2022-09-25T20:55:19.701Z,15.18
2022-09-25T20:57:49.089Z,15.26
2022-09-25T21:00:19.594Z,15.11
2022-09-25T21:02:48.444Z,15.10
2022-09-25T21:05:17.562Z,15.05
2022-09-25T21:07:45.881Z,15.13
2022-09-25T21:10:16.164Z,15.08
2022-09-25T21:12:47.635Z,15.17
2022-09-25T21:15:19.218Z,15.26
2022-09-25T21:17:47.499Z,15.21
2022-09-25T21:20:16.457Z,15.14
2022-09-25T21:22:48.341Z,15.14
2022-09-25T21:25:17.060Z,15.14
2022-09-25T21:27:45.408Z,15.00
2022-09-25T21:30:14.514Z,15.07
2022-09-25T21:32:45.239Z,14.94
2022-09-25T21:35:13.891Z,15.11
2022-09-25T21:37:42.953Z,14.97
2022-09-25T21:40:11.046Z,15.11
2022-09-25T21:42:42.621Z,14.88
2022-09-25T21:45:12.069Z,15.05
2022-09-25T21:47:40.091Z,14.91
2022-09-25T21:50:10.431Z,15.02
2022-09-25T21:52:42.075Z,14.88
2022-09-25T21:55:11.148Z,15.00
2022-09-25T21:57:39.141Z,14.82
2022-09-25T22:00:08.214Z,14.77
2022-09-25T22:02:36.984Z,14.77
2022-09-25T22:05:05.750Z,14.64
2022-09-25T22:07:35.104Z,14.67
2022-09-25T22:10:03.055Z,14.69
2022-09-25T22:12:32.018Z,14.80
2022-09-25T22:15:00.563Z,14.81
2022-09-25T22:17:28.637Z,14.62
2022-09-25T22:19:56.721Z,14.75
2022-09-25T22:22:24.809Z,14.63
2022-09-25T22:24:54.839Z,14.65
2022-09-25T22:27:23.058Z,14.53
2022-09-25T22:29:50.971Z,14.46
2022-09-25T22:32:19.606Z,14.55
2022-09-25T22:34:47.854Z,14.66
2022-09-25T22:37:18.547Z,14.53
2022-09-25T22:39:47.828Z,14.50
2022-09-25T22:42:17.151Z,14.50
2022-09-25T22:44:46.368Z,14.34
2022-09-25T22:47:15.342Z,14.46
2022-09-25T22:49:43.722Z,14.32
2022-09-25T22:52:13.678Z,14.25
2022-09-25T22:54:42.593Z,14.15
2022-09-25T22:57:10.605Z,14.20
2022-09-25T22:59:39.906Z,14.36
2022-09-25T23:02:07.988Z,14.46
2022-09-25T23:04:36.291Z,14.55
2022-09-25T23:07:04.778Z,14.69
2022-09-25T23:09:33.353Z,14.68
2022-09-25T23:12:01.785Z,14.58
2022-09-25T23:14:32.478Z,14.65
2022-09-25T23:17:02.233Z,14.45
2022-09-25T23:19:30.865Z,14.53
2022-09-25T23:21:59.545Z,14.66
2022-09-25T23:24:29.709Z,14.61
2022-09-25T23:26:58.461Z,14.60
2022-09-25T23:29:26.521Z,14.71
2022-09-25T23:31:54.930Z,14.49
2022-09-25T23:34:24.762Z,14.66
2022-09-25T23:36:52.633Z,14.74
2022-09-25T23:39:21.527Z,14.70
2022-09-25T23:41:50.580Z,14.61
2022-09-25T23:44:18.800Z,14.66
2022-09-25T23:46:46.851Z,14.71
2022-09-25T23:49:18.056Z,14.67
2022-09-25T23:51:48.158Z,14.74
2022-09-25T23:54:18.331Z,14.40
2022-09-25T23:56:47.252Z,14.40
2022-09-25T23:59:16.099Z,14.26
